createdAt,value
2022-10-04T00:00:33.502Z,10.00
2022-10-04T00:03:09.131Z,10.00
2022-10-04T00:05:37.248Z,10.10
2022-10-04T00:08:44.264Z,10.10
2022-10-04T00:11:37.697Z,10.10
2022-10-04T00:14:17.167Z,10.10
2022-10-04T00:16:44.347Z,10.10
2022-10-04T00:19:19.765Z,10.10
2022-10-04T00:21:58.321Z,10.00
2022-10-04T00:24:34.298Z,10.00
2022-10-04T00:27:19.784Z,10.10
2022-10-04T00:30:10.549Z,10.10
2022-10-04T00:32:42.954Z,10.10
2022-10-04T00:35:24.901Z,10.00
2022-10-04T00:37:56.460Z,10.10
2022-10-04T00:40:28.183Z,10.20
2022-10-04T00:43:01.124Z,10.20
2022-10-04T00:45:47.162Z,10.20
2022-10-04T00:48:56.621Z,10.30
2022-10-04T00:51:38.491Z,10.30
2022-10-04T00:54:12.196Z,10.30
2022-10-04T00:56:56.155Z,10.30
2022-10-04T00:59:28.480Z,10.40
2022-10-04T01:02:06.040Z,10.40
2022-10-04T01:05:00.319Z,10.40
2022-10-04T01:07:33.193Z,10.50
2022-10-04T01:10:10.463Z,10.50
2022-10-04T01:13:08.480Z,10.50
2022-10-04T01:15:42.709Z,10.50
2022-10-04T01:18:29.158Z,10.50
2022-10-04T01:21:00.312Z,10.60
2022-10-04T01:23:34.372Z,10.50
2022-10-04T01:26:03.136Z,10.60
2022-10-04T01:28:38.416Z,10.50
2022-10-04T01:31:05.324Z,10.50
2022-10-04T01:33:32.034Z,10.60
2022-10-04T01:35:58.764Z,10.50
2022-10-04T01:38:25.420Z,10.60
2022-10-04T01:41:00.368Z,10.50
2022-10-04T01:43:32.870Z,10.50
2022-10-04T01:46:09.888Z,10.40
2022-10-04T01:48:38.803Z,10.50
2022-10-04T01:51:28.573Z,10.40
2022-10-04T01:54:09.472Z,10.40
2022-10-04T01:56:57.005Z,10.50
2022-10-04T01:59:36.943Z,10.40
2022-10-04T02:02:12.371Z,10.40
2022-10-04T02:04:40.996Z,10.30
2022-10-04T02:07:15.839Z,10.20
2022-10-04T02:09:46.647Z,10.20
2022-10-04T02:12:19.831Z,10.20
2022-10-04T02:14:55.656Z,10.20
2022-10-04T02:17:28.424Z,10.20
2022-10-04T02:19:56.845Z,10.20
2022-10-04T02:22:25.338Z,10.20
2022-10-04T02:24:55.241Z,10.20
2022-10-04T02:27:29.945Z,10.20
2022-10-04T02:30:05.295Z,10.20
2022-10-04T02:32:51.934Z,10.20
2022-10-04T02:35:20.011Z,10.20
2022-10-04T02:37:53.815Z,10.20
2022-10-04T02:40:26.528Z,10.10
2022-10-04T02:43:21.443Z,10.10
2022-10-04T02:46:02.983Z,10.10
2022-10-04T02:48:49.635Z,10.10
2022-10-04T02:51:22.040Z,10.10
2022-10-04T02:54:02.309Z,10.00
2022-10-04T02:56:30.946Z,10.00
2022-10-04T02:59:02.152Z,9.90
2022-10-04T03:01:43.654Z,9.90
2022-10-04T03:04:14.919Z,9.90
2022-10-04T03:06:44.919Z,9.90
2022-10-04T03:09:12.332Z,9.80
2022-10-04T03:11:43.393Z,9.80
2022-10-04T03:14:16.029Z,9.80
2022-10-04T03:16:45.324Z,9.80
2022-10-04T03:19:15.131Z,9.80
2022-10-04T03:21:44.776Z,9.80
2022-10-04T03:24:18.828Z,9.80
2022-10-04T03:26:49.589Z,9.80
2022-10-04T03:29:19.105Z,9.80
2022-10-04T03:31:51.402Z,9.80
2022-10-04T03:34:21.425Z,9.90
2022-10-04T03:36:49.587Z,9.90
2022-10-04T03:39:28.332Z,9.80
2022-10-04T03:41:55.319Z,9.80
2022-10-04T03:44:23.380Z,9.80
2022-10-04T03:46:50.104Z,9.80
2022-10-04T03:49:37.632Z,9.80
2022-10-04T03:52:04.772Z,9.90
2022-10-04T03:54:33.118Z,9.90
2022-10-04T03:57:01.890Z,10.00
2022-10-04T03:59:29.629Z,10.00
2022-10-04T04:02:06.547Z,10.10
2022-10-04T04:05:02.601Z,10.10
2022-10-04T04:07:41.987Z,10.10
2022-10-04T04:10:21.474Z,10.10
2022-10-04T04:12:59.021Z,10.10
2022-10-04T04:15:31.044Z,10.00
2022-10-04T04:18:02.640Z,10.00
2022-10-04T04:20:33.484Z,9.90
2022-10-04T04:23:15.199Z,9.90
2022-10-04T04:25:48.208Z,10.00
2022-10-04T04:28:30.001Z,10.00
2022-10-04T04:31:14.061Z,10.00
2022-10-04T04:34:01.257Z,10.10
2022-10-04T04:36:30.740Z,10.10
2022-10-04T04:39:39.670Z,10.10
2022-10-04T04:42:18.015Z,10.20
2022-10-04T04:44:47.659Z,10.20
2022-10-04T04:47:33.963Z,10.20
2022-10-04T04:50:13.140Z,10.10
2022-10-04T04:52:42.518Z,10.10
2022-10-04T04:55:21.270Z,10.20
2022-10-04T04:57:50.703Z,10.10
2022-10-04T05:00:20.262Z,10.10
2022-10-04T05:02:59.133Z,10.20
2022-10-04T05:05:33.478Z,10.10
2022-10-04T05:08:16.321Z,10.20
2022-10-04T05:10:51.201Z,10.10
2022-10-04T05:13:19.915Z,10.10
2022-10-04T05:15:48.993Z,10.00
2022-10-04T05:18:32.009Z,9.90
2022-10-04T05:21:23.233Z,9.90
2022-10-04T05:23:50.081Z,9.90
2022-10-04T05:26:24.798Z,9.90
2022-10-04T05:28:51.509Z,9.90
2022-10-04T05:31:46.769Z,9.90
2022-10-04T05:34:26.998Z,9.70
2022-10-04T05:37:20.521Z,9.70
2022-10-04T05:40:15.037Z,9.80
2022-10-04T05:42:45.327Z,9.80
2022-10-04T05:45:30.766Z,9.70
2022-10-04T05:48:08.768Z,9.70
2022-10-04T05:50:43.515Z,9.80
2022-10-04T05:53:31.201Z,9.80
2022-10-04T05:56:42.043Z,9.80
2022-10-04T05:59:31.502Z,9.90
2022-10-04T06:02:13.098Z,9.90
2022-10-04T06:04:57.937Z,10.00
2022-10-04T06:07:33.989Z,10.00
2022-10-04T06:10:25.827Z,10.00
2022-10-04T06:13:20.433Z,10.10
2022-10-04T06:15:57.052Z,10.10
2022-10-04T06:18:29.559Z,10.10
2022-10-04T06:21:11.821Z,10.10
2022-10-04T06:23:48.799Z,10.20
2022-10-04T06:26:25.585Z,10.20
2022-10-04T06:28:59.969Z,10.10
2022-10-04T06:32:08.848Z,10.20
2022-10-04T06:35:02.495Z,10.20
2022-10-04T06:37:53.347Z,10.20
2022-10-04T06:40:54.269Z,10.30
2022-10-04T06:43:31.877Z,10.40
2022-10-04T06:46:17.457Z,10.50
2022-10-04T06:49:09.635Z,10.70
2022-10-04T06:52:03.478Z,10.70
2022-10-04T06:54:42.746Z,10.70
2022-10-04T06:57:22.880Z,10.80
2022-10-04T07:00:08.637Z,10.80
2022-10-04T07:02:51.486Z,10.90
2022-10-04T07:05:33.581Z,10.90
2022-10-04T07:08:06.823Z,11.00
2022-10-04T07:10:45.022Z,10.90
2022-10-04T07:13:35.041Z,10.90
2022-10-04T07:16:17.746Z,11.00
2022-10-04T07:18:58.147Z,11.10
2022-10-04T07:21:33.508Z,11.20
2022-10-04T07:24:03.607Z,11.30
2022-10-04T07:26:36.160Z,11.30
2022-10-04T07:29:21.507Z,11.30
2022-10-04T07:31:51.409Z,11.50
2022-10-04T07:34:25.037Z,11.40
2022-10-04T07:37:08.635Z,11.50
2022-10-04T07:39:56.365Z,11.60
2022-10-04T07:42:37.167Z,11.60
2022-10-04T07:45:30.267Z,11.60
2022-10-04T07:48:11.108Z,11.60
2022-10-04T07:51:18.298Z,11.70
2022-10-04T07:54:01.623Z,11.70
2022-10-04T07:56:55.080Z,11.90
2022-10-04T07:59:52.532Z,12.00
2022-10-04T08:02:41.116Z,12.10
2022-10-04T08:05:24.310Z,12.40
2022-10-04T08:07:57.581Z,12.50
2022-10-04T08:10:40.296Z,12.70
2022-10-04T08:13:37.979Z,12.70
2022-10-04T08:16:31.023Z,12.80
2022-10-04T08:19:36.805Z,12.70
2022-10-04T08:22:33.172Z,12.80
2022-10-04T08:25:06.128Z,12.80
2022-10-04T08:28:20.771Z,12.80
2022-10-04T08:31:22.977Z,12.80
2022-10-04T08:34:11.625Z,13.00
2022-10-04T08:36:56.465Z,13.20
2022-10-04T08:40:01.701Z,13.40
2022-10-04T08:42:55.445Z,13.40
2022-10-04T08:45:43.751Z,13.40
2022-10-04T08:48:24.493Z,13.40
2022-10-04T08:51:00.110Z,13.50
2022-10-04T08:53:48.669Z,13.40
2022-10-04T08:56:15.228Z,13.40
2022-10-04T08:59:02.830Z,13.80
2022-10-04T09:01:51.182Z,13.90
2022-10-04T09:04:48.828Z,13.80
2022-10-04T09:07:40.161Z,13.80
2022-10-04T09:10:36.560Z,13.90
2022-10-04T09:13:22.122Z,14.00
2022-10-04T09:15:56.069Z,14.40
2022-10-04T09:18:48.549Z,14.90
2022-10-04T09:21:35.445Z,15.20
2022-10-04T09:24:19.244Z,15.50
2022-10-04T09:27:50.372Z,15.70
2022-10-04T09:30:22.298Z,15.90
2022-10-04T09:33:13.411Z,16.20
2022-10-04T09:36:10.754Z,16.30
2022-10-04T09:39:28.895Z,16.00
2022-10-04T09:42:26.906Z,15.90
2022-10-04T09:45:52.175Z,15.90
2022-10-04T09:48:36.869Z,16.30
2022-10-04T09:51:19.777Z,16.30
2022-10-04T09:53:52.885Z,16.30
2022-10-04T09:56:42.157Z,16.30
2022-10-04T09:59:27.134Z,16.20
2022-10-04T10:02:31.610Z,16.30
2022-10-04T10:05:26.904Z,16.30
2022-10-04T10:08:40.947Z,16.30
2022-10-04T10:11:32.379Z,16.30
2022-10-04T10:14:36.983Z,16.10
2022-10-04T10:17:22.468Z,16.20
2022-10-04T10:20:18.350Z,16.10
2022-10-04T10:23:10.859Z,16.10
2022-10-04T10:25:48.238Z,16.30
2022-10-04T10:28:48.419Z,16.40
2022-10-04T10:31:38.003Z,16.60
2022-10-04T10:34:40.971Z,16.70
2022-10-04T10:37:17.345Z,16.80
2022-10-04T10:39:59.117Z,17.10
2022-10-04T10:42:54.728Z,17.20
2022-10-04T10:45:27.685Z,17.30
2022-10-04T10:48:04.687Z,17.50
2022-10-04T10:51:03.235Z,17.60
2022-10-04T10:53:41.305Z,17.70
2022-10-04T10:56:13.978Z,17.80
2022-10-04T10:58:51.829Z,17.70
2022-10-04T11:01:30.111Z,17.70
2022-10-04T11:04:26.217Z,17.70
2022-10-04T11:07:13.933Z,17.90
2022-10-04T11:10:14.692Z,18.10
2022-10-04T11:12:57.883Z,18.20
2022-10-04T11:15:58.854Z,18.20
2022-10-04T11:19:02.903Z,18.30
2022-10-04T11:22:06.814Z,18.30
2022-10-04T11:24:44.417Z,18.30
2022-10-04T11:27:29.575Z,18.30
2022-10-04T11:30:16.751Z,18.30
2022-10-04T11:33:20.465Z,18.20
2022-10-04T11:36:25.892Z,18.10
2022-10-04T11:39:01.180Z,18.20
2022-10-04T11:41:43.234Z,18.30
2022-10-04T11:44:31.398Z,18.40
2022-10-04T11:47:09.834Z,18.60
2022-10-04T11:50:12.159Z,18.60
2022-10-04T11:53:14.054Z,18.50
2022-10-04T11:56:04.407Z,18.60
2022-10-04T11:58:45.312Z,18.70
2022-10-04T12:01:14.066Z,18.70
2022-10-04T12:03:55.341Z,18.60
2022-10-04T12:06:40.135Z,18.50
2022-10-04T12:09:34.383Z,18.50
2022-10-04T12:12:39.422Z,18.50
2022-10-04T12:15:38.531Z,18.50
2022-10-04T12:18:32.857Z,18.60
2022-10-04T12:21:29.297Z,18.60
2022-10-04T12:23:58.869Z,18.70
2022-10-04T12:26:31.948Z,18.80
2022-10-04T12:29:42.604Z,18.90
2022-10-04T12:32:34.219Z,18.90
2022-10-04T12:35:36.091Z,18.80
2022-10-04T12:38:15.607Z,18.90
2022-10-04T12:40:48.377Z,19.00
2022-10-04T12:43:56.825Z,19.10
2022-10-04T12:47:01.772Z,19.30
2022-10-04T12:49:48.500Z,19.20
2022-10-04T12:52:15.412Z,19.20
2022-10-04T12:54:52.536Z,19.30
2022-10-04T12:57:45.774Z,19.30
2022-10-04T13:00:19.490Z,19.40
2022-10-04T13:03:21.943Z,19.50
2022-10-04T13:06:20.378Z,19.40
2022-10-04T13:09:03.016Z,19.50
2022-10-04T13:11:54.336Z,19.40
2022-10-04T13:14:49.032Z,19.30
2022-10-04T13:17:57.837Z,19.40
2022-10-04T13:20:42.932Z,19.40
2022-10-04T13:23:27.392Z,19.40
2022-10-04T13:26:25.080Z,19.40
2022-10-04T13:29:20.283Z,19.40
2022-10-04T13:31:48.946Z,19.40
2022-10-04T13:34:26.761Z,19.50
2022-10-04T13:37:20.411Z,19.50
2022-10-04T13:40:08.808Z,19.50
2022-10-04T13:42:58.806Z,19.50
2022-10-04T13:45:49.485Z,19.60
2022-10-04T13:48:32.864Z,19.60
2022-10-04T13:51:23.789Z,19.50
2022-10-04T13:54:39.224Z,19.60
2022-10-04T13:57:31.593Z,19.60
2022-10-04T14:00:10.899Z,19.60
2022-10-04T14:03:15.011Z,19.50
2022-10-04T14:06:14.738Z,19.60
2022-10-04T14:09:11.257Z,19.70
2022-10-04T14:12:07.405Z,19.80
2022-10-04T14:15:04.234Z,19.80
2022-10-04T14:17:48.965Z,19.70
2022-10-04T14:20:43.502Z,19.70
2022-10-04T14:23:34.362Z,19.70
2022-10-04T14:26:39.475Z,19.70
2022-10-04T14:29:20.590Z,19.80
2022-10-04T14:32:23.721Z,19.80
2022-10-04T14:35:16.853Z,20.00
2022-10-04T14:37:49.199Z,19.80
2022-10-04T14:40:44.509Z,19.70
2022-10-04T14:43:29.625Z,19.60
2022-10-04T14:46:22.430Z,19.60
2022-10-04T14:49:37.537Z,19.60
2022-10-04T14:52:26.840Z,19.60
2022-10-04T14:55:10.535Z,19.60
2022-10-04T14:57:54.629Z,19.60
2022-10-04T15:00:23.659Z,19.70
2022-10-04T15:03:28.754Z,19.60
2022-10-04T15:06:23.140Z,19.60
2022-10-04T15:09:11.668Z,19.60
2022-10-04T15:12:21.681Z,19.60
2022-10-04T15:15:01.839Z,19.70
2022-10-04T15:17:37.880Z,19.70
2022-10-04T15:20:16.817Z,19.70
2022-10-04T15:22:53.012Z,19.70
2022-10-04T15:25:40.313Z,19.70
2022-10-04T15:28:28.249Z,19.60
2022-10-04T15:31:13.060Z,19.60
2022-10-04T15:33:58.519Z,19.60
2022-10-04T15:37:01.628Z,19.50
2022-10-04T15:40:00.286Z,19.40
2022-10-04T15:42:36.933Z,19.40
2022-10-04T15:45:23.890Z,19.40
2022-10-04T15:48:10.259Z,19.30
2022-10-04T15:50:54.933Z,19.30
2022-10-04T15:53:53.642Z,19.20
2022-10-04T15:56:23.440Z,19.20
2022-10-04T15:59:20.198Z,19.20
2022-10-04T16:01:55.821Z,19.10
2022-10-04T16:04:44.759Z,19.10
2022-10-04T16:07:36.317Z,19.10
2022-10-04T16:10:22.890Z,19.00
2022-10-04T16:13:26.961Z,19.00
2022-10-04T16:16:15.481Z,19.00
2022-10-04T16:18:53.799Z,18.90
2022-10-04T16:21:41.181Z,18.90
2022-10-04T16:24:19.613Z,18.80
2022-10-04T16:26:52.565Z,18.70
2022-10-04T16:30:21.752Z,18.70
2022-10-04T16:33:01.109Z,18.60
2022-10-04T16:35:37.601Z,18.50
2022-10-04T16:38:20.855Z,18.50
2022-10-04T16:41:13.199Z,18.40
2022-10-04T16:43:53.794Z,18.30
2022-10-04T16:46:31.368Z,18.20
2022-10-04T16:49:03.208Z,18.10
2022-10-04T16:51:57.006Z,18.10
2022-10-04T16:54:41.957Z,18.00
2022-10-04T16:57:22.185Z,17.90
2022-10-04T16:59:48.727Z,17.90
2022-10-04T17:02:15.271Z,17.70
2022-10-04T17:04:44.836Z,17.50
2022-10-04T17:07:23.088Z,17.50
2022-10-04T17:10:20.920Z,17.30
2022-10-04T17:13:06.118Z,17.20
2022-10-04T17:15:49.614Z,17.10
2022-10-04T17:18:21.095Z,17.10
2022-10-04T17:20:56.917Z,17.10
2022-10-04T17:23:45.373Z,17.10
2022-10-04T17:26:26.235Z,17.00
2022-10-04T17:28:57.438Z,16.90
2022-10-04T17:32:38.716Z,16.80
2022-10-04T17:35:46.952Z,16.80
2022-10-04T17:38:28.175Z,16.80
2022-10-04T17:41:01.613Z,16.80
2022-10-04T17:44:03.209Z,16.70
2022-10-04T17:46:57.389Z,16.70
2022-10-04T17:50:02.493Z,16.70
2022-10-04T17:52:59.556Z,16.70
2022-10-04T17:55:35.674Z,16.70
2022-10-04T17:58:12.329Z,16.60
2022-10-04T18:01:09.887Z,16.70
2022-10-04T18:03:52.133Z,16.60
2022-10-04T18:06:43.140Z,16.40
2022-10-04T18:09:26.638Z,16.40
2022-10-04T18:11:59.286Z,16.30
2022-10-04T18:14:47.617Z,16.30
2022-10-04T18:17:35.479Z,16.20
2022-10-04T18:20:27.658Z,16.20
2022-10-04T18:23:01.923Z,16.10
2022-10-04T18:25:31.953Z,16.10
2022-10-04T18:28:09.369Z,16.10
2022-10-04T18:30:48.896Z,16.10
2022-10-04T18:33:16.722Z,16.10
2022-10-04T18:36:06.280Z,16.10
2022-10-04T18:38:36.173Z,16.10
2022-10-04T18:41:16.108Z,16.00
2022-10-04T18:43:51.902Z,15.90
2022-10-04T18:46:21.003Z,15.90
2022-10-04T18:49:26.945Z,15.80
2022-10-04T18:52:20.911Z,15.80
2022-10-04T18:55:02.551Z,15.80
2022-10-04T18:58:21.437Z,15.70
2022-10-04T19:01:15.968Z,15.60
2022-10-04T19:04:06.766Z,15.50
2022-10-04T19:06:38.582Z,15.30
2022-10-04T19:09:17.784Z,15.30
2022-10-04T19:11:57.817Z,15.20
2022-10-04T19:14:42.320Z,15.20
2022-10-04T19:17:35.324Z,15.10
2022-10-04T19:20:19.656Z,15.00
2022-10-04T19:23:07.382Z,14.90
2022-10-04T19:26:03.074Z,14.90
2022-10-04T19:28:35.582Z,14.80
2022-10-04T19:31:21.323Z,14.80
2022-10-04T19:33:59.713Z,14.70
2022-10-04T19:36:45.378Z,14.70
2022-10-04T19:39:36.969Z,14.70
2022-10-04T19:42:11.243Z,14.70
2022-10-04T19:45:16.699Z,14.60
2022-10-04T19:47:56.620Z,14.60
2022-10-04T19:50:37.067Z,14.50
2022-10-04T19:53:28.458Z,14.50
2022-10-04T19:55:56.355Z,14.40
2022-10-04T19:58:38.785Z,14.40
2022-10-04T20:01:25.752Z,14.40
2022-10-04T20:04:11.947Z,14.40
2022-10-04T20:06:47.957Z,14.40
2022-10-04T20:09:36.835Z,14.40
2022-10-04T20:12:29.342Z,14.30
2022-10-04T20:15:27.998Z,14.30
2022-10-04T20:17:55.744Z,14.20
2022-10-04T20:20:41.236Z,14.20
2022-10-04T20:23:09.056Z,14.20
2022-10-04T20:25:45.387Z,14.10
2022-10-04T20:28:27.118Z,14.10
2022-10-04T20:30:57.820Z,14.00
2022-10-04T20:33:37.075Z,13.90
2022-10-04T20:36:06.737Z,13.90
2022-10-04T20:38:49.187Z,13.90
2022-10-04T20:41:27.940Z,13.90
2022-10-04T20:43:57.140Z,13.90
2022-10-04T20:46:25.763Z,13.80
2022-10-04T20:48:54.180Z,13.80
2022-10-04T20:51:24.014Z,13.70
2022-10-04T20:53:50.977Z,13.70
2022-10-04T20:56:26.549Z,13.70
2022-10-04T20:59:01.481Z,13.60
2022-10-04T21:01:36.968Z,13.60
2022-10-04T21:04:14.585Z,13.60
2022-10-04T21:06:56.038Z,13.60
2022-10-04T21:09:23.432Z,13.50
2022-10-04T21:11:52.095Z,13.40
2022-10-04T21:14:23.360Z,13.30
2022-10-04T21:16:52.660Z,13.20
2022-10-04T21:19:32.058Z,13.10
2022-10-04T21:22:09.824Z,13.00
2022-10-04T21:24:42.163Z,13.00
2022-10-04T21:27:11.224Z,13.00
2022-10-04T21:29:38.757Z,12.90
2022-10-04T21:32:05.998Z,12.80
2022-10-04T21:34:52.569Z,12.90
2022-10-04T21:37:19.824Z,12.80
2022-10-04T21:39:46.384Z,12.80
2022-10-04T21:42:12.972Z,12.70
2022-10-04T21:44:39.544Z,12.70
2022-10-04T21:47:06.144Z,12.70
2022-10-04T21:49:32.776Z,12.70
2022-10-04T21:51:59.357Z,12.60
2022-10-04T21:54:25.991Z,12.70
2022-10-04T21:56:53.818Z,12.70
2022-10-04T21:59:20.981Z,12.70
2022-10-04T22:01:47.909Z,12.80
2022-10-04T22:04:14.512Z,12.80
2022-10-04T22:06:41.641Z,12.80
2022-10-04T22:09:08.963Z,12.70
2022-10-04T22:11:36.297Z,12.80
2022-10-04T22:14:03.105Z,12.70
2022-10-04T22:16:30.144Z,12.70
2022-10-04T22:18:56.822Z,12.70
2022-10-04T22:21:23.476Z,12.70
2022-10-04T22:23:50.117Z,12.60
2022-10-04T22:26:19.260Z,12.60
2022-10-04T22:28:50.931Z,12.50
2022-10-04T22:31:20.334Z,12.50
2022-10-04T22:33:49.640Z,12.50
2022-10-04T22:36:38.056Z,12.40
2022-10-04T22:39:13.040Z,12.40
2022-10-04T22:41:48.346Z,12.40
2022-10-04T22:44:19.487Z,12.40
2022-10-04T22:46:49.442Z,12.30
2022-10-04T22:49:21.040Z,12.30
2022-10-04T22:51:49.662Z,12.30
2022-10-04T22:54:19.395Z,12.20
2022-10-04T22:56:46.710Z,12.20
2022-10-04T22:59:15.995Z,12.20
2022-10-04T23:01:43.668Z,12.10
2022-10-04T23:04:16.534Z,12.10
2022-10-04T23:06:43.927Z,12.10
2022-10-04T23:09:10.794Z,12.00
2022-10-04T23:11:37.371Z,12.00
2022-10-04T23:14:04.203Z,12.00
2022-10-04T23:16:31.434Z,12.00
2022-10-04T23:19:06.511Z,11.90
2022-10-04T23:21:34.950Z,11.90
2022-10-04T23:24:15.782Z,11.90
2022-10-04T23:26:44.754Z,11.80
2022-10-04T23:29:33.372Z,11.80
2022-10-04T23:32:09.186Z,11.80
2022-10-04T23:34:38.106Z,11.80
2022-10-04T23:37:17.335Z,11.80
2022-10-04T23:39:44.739Z,11.80
2022-10-04T23:42:20.461Z,11.80
2022-10-04T23:44:49.720Z,11.80
2022-10-04T23:47:19.074Z,11.80
2022-10-04T23:49:52.196Z,11.80
2022-10-04T23:52:22.159Z,11.70
2022-10-04T23:54:50.587Z,11.70
2022-10-04T23:57:24.628Z,11.70
2022-10-04T23:59:52.051Z,11.70
